sensor_id;sensor_type;location;lat;lon;timestamp;P1;durP1;ratioP1;P2;durP2;ratioP2
52956;SDS011;38819;42.692;23.342;2023-02-15T00:01:22;51.08;;;30.27;;
52956;SDS011;38819;42.692;23.342;2023-02-15T00:03:49;51.10;;;30.58;;
52956;SDS011;38819;42.692;23.342;2023-02-15T00:06:15;53.65;;;31.25;;
52956;SDS011;38819;42.692;23.342;2023-02-15T00:08:41;54.42;;;31.77;;
52956;SDS011;38819;42.692;23.342;2023-02-15T00:11:11;53.95;;;32.35;;
52956;SDS011;38819;42.692;23.342;2023-02-15T00:13:38;47.97;;;30.48;;
52956;SDS011;38819;42.692;23.342;2023-02-15T00:16:10;50.75;;;30.77;;
52956;SDS011;38819;42.692;23.342;2023-02-15T00:18:40;51.15;;;32.30;;
52956;SDS011;38819;42.692;23.342;2023-02-15T00:21:09;48.28;;;29.80;;
52956;SDS011;38819;42.692;23.342;2023-02-15T00:23:35;49.70;;;30.35;;
52956;SDS011;38819;42.692;23.342;2023-02-15T00:26:08;49.60;;;30.65;;
52956;SDS011;38819;42.692;23.342;2023-02-15T00:28:35;49.17;;;30.25;;
52956;SDS011;38819;42.692;23.342;2023-02-15T00:31:08;50.83;;;31.67;;
52956;SDS011;38819;42.692;23.342;2023-02-15T00:33:35;52.80;;;31.80;;
52956;SDS011;38819;42.692;23.342;2023-02-15T00:36:02;48.30;;;30.48;;
52956;SDS011;38819;42.692;23.342;2023-02-15T00:38:29;51.00;;;30.48;;
52956;SDS011;38819;42.692;23.342;2023-02-15T00:40:56;50.08;;;31.48;;
52956;SDS011;38819;42.692;23.342;2023-02-15T00:43:24;44.65;;;29.27;;
52956;SDS011;38819;42.692;23.342;2023-02-15T00:45:50;38.65;;;22.52;;
52956;SDS011;38819;42.692;23.342;2023-02-15T00:48:16;47.78;;;31.10;;
52956;SDS011;38819;42.692;23.342;2023-02-15T00:50:44;50.75;;;30.58;;
52956;SDS011;38819;42.692;23.342;2023-02-15T00:53:11;46.47;;;30.70;;
52956;SDS011;38819;42.692;23.342;2023-02-15T00:55:36;48.78;;;29.30;;
52956;SDS011;38819;42.692;23.342;2023-02-15T00:58:02;44.47;;;29.23;;
52956;SDS011;38819;42.692;23.342;2023-02-15T01:00:27;49.55;;;31.38;;
52956;SDS011;38819;42.692;23.342;2023-02-15T01:02:52;47.72;;;30.05;;
52956;SDS011;38819;42.692;23.342;2023-02-15T01:05:18;46.33;;;29.40;;
52956;SDS011;38819;42.692;23.342;2023-02-15T01:07:43;45.60;;;28.88;;
52956;SDS011;38819;42.692;23.342;2023-02-15T01:10:09;46.95;;;29.30;;
52956;SDS011;38819;42.692;23.342;2023-02-15T01:12:34;49.55;;;29.83;;
52956;SDS011;38819;42.692;23.342;2023-02-15T01:15:00;45.75;;;27.92;;
52956;SDS011;38819;42.692;23.342;2023-02-15T01:17:25;43.60;;;28.70;;
52956;SDS011;38819;42.692;23.342;2023-02-15T01:19:51;45.03;;;29.02;;
52956;SDS011;38819;42.692;23.342;2023-02-15T01:22:17;50.38;;;31.38;;
52956;SDS011;38819;42.692;23.342;2023-02-15T01:24:43;45.83;;;28.43;;
52956;SDS011;38819;42.692;23.342;2023-02-15T01:27:09;45.53;;;28.42;;
52956;SDS011;38819;42.692;23.342;2023-02-15T01:29:34;42.33;;;28.20;;
52956;SDS011;38819;42.692;23.342;2023-02-15T01:31:59;39.78;;;26.65;;
52956;SDS011;38819;42.692;23.342;2023-02-15T01:34:25;42.95;;;28.20;;
52956;SDS011;38819;42.692;23.342;2023-02-15T01:36:50;46.33;;;29.38;;
52956;SDS011;38819;42.692;23.342;2023-02-15T01:39:16;48.03;;;30.17;;
52956;SDS011;38819;42.692;23.342;2023-02-15T01:41:41;44.80;;;28.98;;
52956;SDS011;38819;42.692;23.342;2023-02-15T01:47:10;46.28;;;28.20;;
52956;SDS011;38819;42.692;23.342;2023-02-15T01:49:38;47.13;;;29.27;;
52956;SDS011;38819;42.692;23.342;2023-02-15T01:52:06;45.45;;;29.13;;
52956;SDS011;38819;42.692;23.342;2023-02-15T01:54:35;44.67;;;29.05;;
52956;SDS011;38819;42.692;23.342;2023-02-15T01:57:03;44.05;;;28.20;;
52956;SDS011;38819;42.692;23.342;2023-02-15T01:59:34;40.00;;;28.65;;
52956;SDS011;38819;42.692;23.342;2023-02-15T02:02:02;47.30;;;29.50;;
52956;SDS011;38819;42.692;23.342;2023-02-15T02:04:35;40.25;;;26.73;;
52956;SDS011;38819;42.692;23.342;2023-02-15T02:07:06;47.17;;;28.60;;
52956;SDS011;38819;42.692;23.342;2023-02-15T02:09:33;42.90;;;28.42;;
52956;SDS011;38819;42.692;23.342;2023-02-15T02:12:00;42.47;;;28.75;;
52956;SDS011;38819;42.692;23.342;2023-02-15T02:14:26;44.22;;;29.08;;
52956;SDS011;38819;42.692;23.342;2023-02-15T02:16:54;46.28;;;27.92;;
52956;SDS011;38819;42.692;23.342;2023-02-15T02:19:42;43.83;;;29.95;;
52956;SDS011;38819;42.692;23.342;2023-02-15T02:33:56;39.47;;;25.98;;
52956;SDS011;38819;42.692;23.342;2023-02-15T02:36:49;44.10;;;27.58;;
52956;SDS011;38819;42.692;23.342;2023-02-15T02:42:18;43.55;;;27.13;;
52956;SDS011;38819;42.692;23.342;2023-02-15T02:45:03;41.67;;;27.00;;
52956;SDS011;38819;42.692;23.342;2023-02-15T02:47:34;45.15;;;26.63;;
52956;SDS011;38819;42.692;23.342;2023-02-15T02:50:09;40.65;;;26.58;;
52956;SDS011;38819;42.692;23.342;2023-02-15T02:55:21;42.05;;;26.05;;
52956;SDS011;38819;42.692;23.342;2023-02-15T03:01:39;43.53;;;26.27;;
52956;SDS011;38819;42.692;23.342;2023-02-15T03:03:53;42.47;;;26.23;;
52956;SDS011;38819;42.692;23.342;2023-02-15T03:06:25;44.15;;;26.88;;
52956;SDS011;38819;42.692;23.342;2023-02-15T03:09:01;41.83;;;26.40;;
52956;SDS011;38819;42.692;23.342;2023-02-15T03:11:39;42.00;;;26.55;;
52956;SDS011;38819;42.692;23.342;2023-02-15T03:14:05;40.45;;;25.52;;
52956;SDS011;38819;42.692;23.342;2023-02-15T03:16:31;42.22;;;26.67;;
52956;SDS011;38819;42.692;23.342;2023-02-15T03:19:08;40.63;;;26.98;;
52956;SDS011;38819;42.692;23.342;2023-02-15T03:21:48;41.72;;;26.23;;
52956;SDS011;38819;42.692;23.342;2023-02-15T03:24:23;45.60;;;27.17;;
52956;SDS011;38819;42.692;23.342;2023-02-15T03:26:52;38.42;;;24.55;;
52956;SDS011;38819;42.692;23.342;2023-02-15T03:29:20;43.58;;;27.27;;
52956;SDS011;38819;42.692;23.342;2023-02-15T03:31:49;37.25;;;24.48;;
52956;SDS011;38819;42.692;23.342;2023-02-15T03:34:21;36.05;;;23.27;;
52956;SDS011;38819;42.692;23.342;2023-02-15T03:36:51;39.97;;;24.75;;
52956;SDS011;38819;42.692;23.342;2023-02-15T03:41:56;40.65;;;24.70;;
52956;SDS011;38819;42.692;23.342;2023-02-15T03:44:28;42.72;;;26.27;;
52956;SDS011;38819;42.692;23.342;2023-02-15T03:49:22;36.10;;;24.45;;
52956;SDS011;38819;42.692;23.342;2023-02-15T03:51:53;39.42;;;24.77;;
52956;SDS011;38819;42.692;23.342;2023-02-15T03:54:24;40.38;;;26.02;;
52956;SDS011;38819;42.692;23.342;2023-02-15T03:57:12;38.67;;;25.15;;
52956;SDS011;38819;42.692;23.342;2023-02-15T03:59:59;37.92;;;24.40;;
52956;SDS011;38819;42.692;23.342;2023-02-15T04:02:53;39.80;;;24.35;;
52956;SDS011;38819;42.692;23.342;2023-02-15T04:05:29;38.22;;;24.15;;
52956;SDS011;38819;42.692;23.342;2023-02-15T04:07:54;38.15;;;26.50;;
52956;SDS011;38819;42.692;23.342;2023-02-15T04:10:20;44.53;;;25.67;;
52956;SDS011;38819;42.692;23.342;2023-02-15T04:13:04;39.53;;;24.80;;
52956;SDS011;38819;42.692;23.342;2023-02-15T04:15:29;42.22;;;26.00;;
52956;SDS011;38819;42.692;23.342;2023-02-15T04:18:13;40.17;;;25.23;;
52956;SDS011;38819;42.692;23.342;2023-02-15T04:20:40;40.00;;;25.42;;
52956;SDS011;38819;42.692;23.342;2023-02-15T04:23:27;39.28;;;26.45;;
52956;SDS011;38819;42.692;23.342;2023-02-15T04:26:11;37.33;;;24.58;;
52956;SDS011;38819;42.692;23.342;2023-02-15T04:28:36;40.80;;;25.80;;
52956;SDS011;38819;42.692;23.342;2023-02-15T04:31:02;39.50;;;24.98;;
52956;SDS011;38819;42.692;23.342;2023-02-15T04:33:27;40.97;;;25.23;;
52956;SDS011;38819;42.692;23.342;2023-02-15T04:35:53;41.50;;;26.42;;
52956;SDS011;38819;42.692;23.342;2023-02-15T04:38:18;42.75;;;26.05;;
52956;SDS011;38819;42.692;23.342;2023-02-15T04:40:43;41.80;;;25.83;;
52956;SDS011;38819;42.692;23.342;2023-02-15T04:43:09;36.72;;;24.80;;
52956;SDS011;38819;42.692;23.342;2023-02-15T04:45:34;39.40;;;25.05;;
52956;SDS011;38819;42.692;23.342;2023-02-15T04:48:00;38.10;;;24.63;;
52956;SDS011;38819;42.692;23.342;2023-02-15T04:50:25;39.70;;;24.90;;
52956;SDS011;38819;42.692;23.342;2023-02-15T04:52:50;41.53;;;26.15;;
52956;SDS011;38819;42.692;23.342;2023-02-15T04:55:16;39.53;;;26.02;;
52956;SDS011;38819;42.692;23.342;2023-02-15T04:57:41;38.92;;;26.77;;
52956;SDS011;38819;42.692;23.342;2023-02-15T05:00:07;44.28;;;26.83;;
52956;SDS011;38819;42.692;23.342;2023-02-15T05:02:34;43.55;;;26.20;;
52956;SDS011;38819;42.692;23.342;2023-02-15T05:04:59;45.65;;;27.75;;
52956;SDS011;38819;42.692;23.342;2023-02-15T05:07:24;45.00;;;27.67;;
52956;SDS011;38819;42.692;23.342;2023-02-15T05:09:50;46.22;;;27.63;;
52956;SDS011;38819;42.692;23.342;2023-02-15T05:12:15;44.72;;;27.33;;
52956;SDS011;38819;42.692;23.342;2023-02-15T05:14:40;43.67;;;26.13;;
52956;SDS011;38819;42.692;23.342;2023-02-15T05:17:06;43.50;;;25.60;;
52956;SDS011;38819;42.692;23.342;2023-02-15T05:19:31;40.22;;;26.67;;
52956;SDS011;38819;42.692;23.342;2023-02-15T05:21:57;43.58;;;26.45;;
52956;SDS011;38819;42.692;23.342;2023-02-15T05:24:22;44.97;;;27.65;;
52956;SDS011;38819;42.692;23.342;2023-02-15T05:27:07;41.97;;;25.60;;
52956;SDS011;38819;42.692;23.342;2023-02-15T05:29:54;41.00;;;25.50;;
52956;SDS011;38819;42.692;23.342;2023-02-15T05:32:19;41.58;;;26.52;;
52956;SDS011;38819;42.692;23.342;2023-02-15T05:34:44;44.25;;;28.27;;
52956;SDS011;38819;42.692;23.342;2023-02-15T05:37:10;41.13;;;25.45;;
52956;SDS011;38819;42.692;23.342;2023-02-15T05:39:35;42.92;;;27.15;;
52956;SDS011;38819;42.692;23.342;2023-02-15T05:42:01;44.47;;;26.92;;
52956;SDS011;38819;42.692;23.342;2023-02-15T05:44:26;42.00;;;26.58;;
52956;SDS011;38819;42.692;23.342;2023-02-15T05:46:52;42.47;;;25.80;;
52956;SDS011;38819;42.692;23.342;2023-02-15T05:49:17;43.70;;;25.45;;
52956;SDS011;38819;42.692;23.342;2023-02-15T05:51:43;39.67;;;26.05;;
52956;SDS011;38819;42.692;23.342;2023-02-15T05:54:08;36.88;;;24.10;;
52956;SDS011;38819;42.692;23.342;2023-02-15T05:56:33;40.67;;;25.35;;
52956;SDS011;38819;42.692;23.342;2023-02-15T05:58:59;41.40;;;26.20;;
52956;SDS011;38819;42.692;23.342;2023-02-15T06:01:24;41.63;;;26.95;;
52956;SDS011;38819;42.692;23.342;2023-02-15T06:03:50;38.78;;;24.77;;
52956;SDS011;38819;42.692;23.342;2023-02-15T06:06:16;44.60;;;25.80;;
52956;SDS011;38819;42.692;23.342;2023-02-15T06:08:42;37.75;;;24.27;;
52956;SDS011;38819;42.692;23.342;2023-02-15T06:11:07;37.80;;;25.15;;
52956;SDS011;38819;42.692;23.342;2023-02-15T06:13:33;35.35;;;23.63;;
52956;SDS011;38819;42.692;23.342;2023-02-15T06:15:59;39.17;;;25.38;;
52956;SDS011;38819;42.692;23.342;2023-02-15T06:18:25;35.15;;;23.13;;
52956;SDS011;38819;42.692;23.342;2023-02-15T06:20:50;38.20;;;25.27;;
52956;SDS011;38819;42.692;23.342;2023-02-15T06:23:16;44.15;;;25.73;;
52956;SDS011;38819;42.692;23.342;2023-02-15T06:25:41;45.42;;;25.02;;
52956;SDS011;38819;42.692;23.342;2023-02-15T06:28:07;37.47;;;23.50;;
52956;SDS011;38819;42.692;23.342;2023-02-15T06:30:32;38.50;;;25.52;;
52956;SDS011;38819;42.692;23.342;2023-02-15T06:32:58;39.78;;;25.00;;
52956;SDS011;38819;42.692;23.342;2023-02-15T06:35:24;42.47;;;27.08;;
52956;SDS011;38819;42.692;23.342;2023-02-15T06:37:49;41.25;;;24.27;;
52956;SDS011;38819;42.692;23.342;2023-02-15T06:40:15;41.80;;;25.17;;
52956;SDS011;38819;42.692;23.342;2023-02-15T06:42:41;43.28;;;25.05;;
52956;SDS011;38819;42.692;23.342;2023-02-15T06:45:07;37.00;;;24.70;;
52956;SDS011;38819;42.692;23.342;2023-02-15T06:47:33;38.67;;;25.27;;
52956;SDS011;38819;42.692;23.342;2023-02-15T06:49:59;43.55;;;23.77;;
52956;SDS011;38819;42.692;23.342;2023-02-15T06:52:24;35.33;;;23.33;;
52956;SDS011;38819;42.692;23.342;2023-02-15T06:54:50;39.58;;;24.92;;
52956;SDS011;38819;42.692;23.342;2023-02-15T06:57:15;35.95;;;23.33;;
52956;SDS011;38819;42.692;23.342;2023-02-15T06:59:41;38.95;;;25.48;;
52956;SDS011;38819;42.692;23.342;2023-02-15T07:02:07;39.63;;;25.80;;
52956;SDS011;38819;42.692;23.342;2023-02-15T07:04:34;42.55;;;25.98;;
52956;SDS011;38819;42.692;23.342;2023-02-15T07:06:59;39.70;;;23.52;;
52956;SDS011;38819;42.692;23.342;2023-02-15T07:09:25;36.55;;;21.98;;
52956;SDS011;38819;42.692;23.342;2023-02-15T07:11:51;35.90;;;23.50;;
52956;SDS011;38819;42.692;23.342;2023-02-15T07:14:35;37.25;;;23.55;;
52956;SDS011;38819;42.692;23.342;2023-02-15T07:17:00;38.63;;;22.65;;
52956;SDS011;38819;42.692;23.342;2023-02-15T07:19:26;36.55;;;21.42;;
52956;SDS011;38819;42.692;23.342;2023-02-15T07:21:51;34.33;;;22.33;;
52956;SDS011;38819;42.692;23.342;2023-02-15T07:24:16;33.30;;;22.00;;
52956;SDS011;38819;42.692;23.342;2023-02-15T07:26:42;34.13;;;20.92;;
52956;SDS011;38819;42.692;23.342;2023-02-15T07:29:08;34.80;;;21.73;;
52956;SDS011;38819;42.692;23.342;2023-02-15T07:31:33;30.63;;;21.42;;
52956;SDS011;38819;42.692;23.342;2023-02-15T07:33:58;33.33;;;21.88;;
52956;SDS011;38819;42.692;23.342;2023-02-15T07:36:24;35.60;;;21.15;;
52956;SDS011;38819;42.692;23.342;2023-02-15T07:38:49;30.45;;;20.20;;
52956;SDS011;38819;42.692;23.342;2023-02-15T07:41:15;32.75;;;20.42;;
52956;SDS011;38819;42.692;23.342;2023-02-15T07:43:42;31.23;;;20.30;;
52956;SDS011;38819;42.692;23.342;2023-02-15T07:48:36;35.63;;;21.08;;
52956;SDS011;38819;42.692;23.342;2023-02-15T07:51:03;34.97;;;22.23;;
52956;SDS011;38819;42.692;23.342;2023-02-15T07:53:30;33.28;;;20.90;;
52956;SDS011;38819;42.692;23.342;2023-02-15T07:56:00;37.28;;;22.85;;
52956;SDS011;38819;42.692;23.342;2023-02-15T07:58:29;31.27;;;21.75;;
52956;SDS011;38819;42.692;23.342;2023-02-15T08:01:14;32.03;;;20.27;;
52956;SDS011;38819;42.692;23.342;2023-02-15T08:03:39;34.05;;;21.52;;
52956;SDS011;38819;42.692;23.342;2023-02-15T08:06:05;35.58;;;20.88;;
52956;SDS011;38819;42.692;23.342;2023-02-15T08:08:33;30.83;;;20.40;;
52956;SDS011;38819;42.692;23.342;2023-02-15T08:11:09;32.83;;;20.75;;
52956;SDS011;38819;42.692;23.342;2023-02-15T08:16:50;35.05;;;20.88;;
52956;SDS011;38819;42.692;23.342;2023-02-15T08:21:50;32.40;;;21.45;;
52956;SDS011;38819;42.692;23.342;2023-02-15T08:24:27;33.03;;;21.50;;
52956;SDS011;38819;42.692;23.342;2023-02-15T08:26:54;34.45;;;19.90;;
52956;SDS011;38819;42.692;23.342;2023-02-15T08:29:21;31.13;;;20.40;;
52956;SDS011;38819;42.692;23.342;2023-02-15T08:31:48;32.63;;;20.42;;
52956;SDS011;38819;42.692;23.342;2023-02-15T08:34:15;36.97;;;20.92;;
52956;SDS011;38819;42.692;23.342;2023-02-15T08:36:42;35.42;;;21.33;;
52956;SDS011;38819;42.692;23.342;2023-02-15T08:41:36;35.50;;;21.08;;
52956;SDS011;38819;42.692;23.342;2023-02-15T08:44:04;36.80;;;21.45;;
52956;SDS011;38819;42.692;23.342;2023-02-15T08:46:32;32.10;;;20.65;;
52956;SDS011;38819;42.692;23.342;2023-02-15T08:49:00;35.20;;;21.15;;
52956;SDS011;38819;42.692;23.342;2023-02-15T08:51:27;39.38;;;21.08;;
52956;SDS011;38819;42.692;23.342;2023-02-15T08:53:55;30.60;;;18.95;;
52956;SDS011;38819;42.692;23.342;2023-02-15T08:56:23;28.27;;;18.30;;
52956;SDS011;38819;42.692;23.342;2023-02-15T08:58:51;32.22;;;19.38;;
52956;SDS011;38819;42.692;23.342;2023-02-15T09:01:18;32.17;;;19.25;;
52956;SDS011;38819;42.692;23.342;2023-02-15T09:03:46;30.15;;;18.40;;
52956;SDS011;38819;42.692;23.342;2023-02-15T09:08:38;27.73;;;17.77;;
52956;SDS011;38819;42.692;23.342;2023-02-15T09:11:15;31.40;;;18.83;;
52956;SDS011;38819;42.692;23.342;2023-02-15T09:13:47;28.50;;;17.48;;
52956;SDS011;38819;42.692;23.342;2023-02-15T09:16:34;30.10;;;18.02;;
52956;SDS011;38819;42.692;23.342;2023-02-15T09:19:02;31.33;;;19.08;;
52956;SDS011;38819;42.692;23.342;2023-02-15T09:23:57;27.05;;;17.88;;
52956;SDS011;38819;42.692;23.342;2023-02-15T09:26:25;29.05;;;19.33;;
52956;SDS011;38819;42.692;23.342;2023-02-15T09:28:53;38.78;;;19.35;;
52956;SDS011;38819;42.692;23.342;2023-02-15T09:31:24;30.83;;;19.88;;
52956;SDS011;38819;42.692;23.342;2023-02-15T09:33:51;30.17;;;19.10;;
52956;SDS011;38819;42.692;23.342;2023-02-15T09:36:25;33.72;;;19.15;;
52956;SDS011;38819;42.692;23.342;2023-02-15T09:38:55;30.05;;;19.95;;
52956;SDS011;38819;42.692;23.342;2023-02-15T09:47:13;33.35;;;18.85;;
52956;SDS011;38819;42.692;23.342;2023-02-15T09:52:55;25.27;;;17.48;;
52956;SDS011;38819;42.692;23.342;2023-02-15T10:10:02;30.27;;;19.35;;
52956;SDS011;38819;42.692;23.342;2023-02-15T10:21:01;34.38;;;22.10;;
52956;SDS011;38819;42.692;23.342;2023-02-15T10:23:41;29.38;;;20.52;;
52956;SDS011;38819;42.692;23.342;2023-02-15T10:26:18;29.77;;;18.88;;
52956;SDS011;38819;42.692;23.342;2023-02-15T10:28:53;32.60;;;19.63;;
52956;SDS011;38819;42.692;23.342;2023-02-15T10:31:42;31.58;;;20.02;;
52956;SDS011;38819;42.692;23.342;2023-02-15T10:37:39;37.13;;;20.45;;
52956;SDS011;38819;42.692;23.342;2023-02-15T10:43:25;31.23;;;20.70;;
52956;SDS011;38819;42.692;23.342;2023-02-15T10:54:30;31.67;;;21.33;;
52956;SDS011;38819;42.692;23.342;2023-02-15T11:08:23;32.00;;;21.98;;
52956;SDS011;38819;42.692;23.342;2023-02-15T11:10:51;33.28;;;21.38;;
52956;SDS011;38819;42.692;23.342;2023-02-15T11:13:21;30.88;;;20.70;;
52956;SDS011;38819;42.692;23.342;2023-02-15T11:23:45;32.03;;;21.35;;
52956;SDS011;38819;42.692;23.342;2023-02-15T11:31:55;37.25;;;22.30;;
52956;SDS011;38819;42.692;23.342;2023-02-15T11:34:34;34.63;;;23.15;;
52956;SDS011;38819;42.692;23.342;2023-02-15T11:37:24;34.10;;;21.90;;
52956;SDS011;38819;42.692;23.342;2023-02-15T11:39:59;34.40;;;21.73;;
52956;SDS011;38819;42.692;23.342;2023-02-15T11:42:28;30.92;;;20.75;;
52956;SDS011;38819;42.692;23.342;2023-02-15T11:47:41;39.60;;;21.90;;
52956;SDS011;38819;42.692;23.342;2023-02-15T11:50:11;32.00;;;21.17;;
52956;SDS011;38819;42.692;23.342;2023-02-15T11:52:40;31.58;;;20.77;;
52956;SDS011;38819;42.692;23.342;2023-02-15T11:55:09;33.50;;;21.23;;
52956;SDS011;38819;42.692;23.342;2023-02-15T11:57:41;34.03;;;21.20;;
52956;SDS011;38819;42.692;23.342;2023-02-15T12:00:19;31.45;;;21.08;;
52956;SDS011;38819;42.692;23.342;2023-02-15T12:02:49;40.42;;;23.25;;
52956;SDS011;38819;42.692;23.342;2023-02-15T12:05:19;32.95;;;21.55;;
52956;SDS011;38819;42.692;23.342;2023-02-15T12:07:55;36.22;;;22.48;;
52956;SDS011;38819;42.692;23.342;2023-02-15T12:10:29;33.38;;;21.52;;
52956;SDS011;38819;42.692;23.342;2023-02-15T12:13:10;36.42;;;23.38;;
52956;SDS011;38819;42.692;23.342;2023-02-15T12:15:44;34.83;;;22.90;;
52956;SDS011;38819;42.692;23.342;2023-02-15T12:20:59;33.00;;;21.60;;
52956;SDS011;38819;42.692;23.342;2023-02-15T12:23:28;34.88;;;21.70;;
52956;SDS011;38819;42.692;23.342;2023-02-15T12:25:55;33.08;;;22.48;;
52956;SDS011;38819;42.692;23.342;2023-02-15T12:30:51;35.13;;;23.08;;
52956;SDS011;38819;42.692;23.342;2023-02-15T12:36:00;36.78;;;23.30;;
52956;SDS011;38819;42.692;23.342;2023-02-15T12:38:33;32.38;;;22.05;;
52956;SDS011;38819;42.692;23.342;2023-02-15T12:41:00;32.72;;;22.98;;
52956;SDS011;38819;42.692;23.342;2023-02-15T12:43:37;32.60;;;22.25;;
52956;SDS011;38819;42.692;23.342;2023-02-15T12:51:46;31.23;;;21.05;;
52956;SDS011;38819;42.692;23.342;2023-02-15T12:54:33;33.38;;;22.17;;
52956;SDS011;38819;42.692;23.342;2023-02-15T12:57:01;37.92;;;22.13;;
52956;SDS011;38819;42.692;23.342;2023-02-15T13:05:19;31.13;;;21.45;;
52956;SDS011;38819;42.692;23.342;2023-02-15T13:07:55;32.40;;;21.88;;
52956;SDS011;38819;42.692;23.342;2023-02-15T13:12:52;29.98;;;20.40;;
52956;SDS011;38819;42.692;23.342;2023-02-15T13:15:26;33.67;;;22.75;;
52956;SDS011;38819;42.692;23.342;2023-02-15T13:17:57;34.95;;;22.63;;
52956;SDS011;38819;42.692;23.342;2023-02-15T13:20:23;32.33;;;20.63;;
52956;SDS011;38819;42.692;23.342;2023-02-15T13:22:53;33.47;;;22.17;;
52956;SDS011;38819;42.692;23.342;2023-02-15T13:25:23;33.00;;;21.48;;
52956;SDS011;38819;42.692;23.342;2023-02-15T13:27:52;32.58;;;21.13;;
52956;SDS011;38819;42.692;23.342;2023-02-15T13:30:23;35.08;;;21.30;;
52956;SDS011;38819;42.692;23.342;2023-02-15T13:32:57;33.03;;;21.83;;
52956;SDS011;38819;42.692;23.342;2023-02-15T13:35:27;31.83;;;21.05;;
52956;SDS011;38819;42.692;23.342;2023-02-15T13:38:08;34.08;;;21.42;;
52956;SDS011;38819;42.692;23.342;2023-02-15T13:40:53;34.70;;;21.88;;
52956;SDS011;38819;42.692;23.342;2023-02-15T13:46:34;38.75;;;22.05;;
52956;SDS011;38819;42.692;23.342;2023-02-15T13:49:18;32.45;;;22.30;;
52956;SDS011;38819;42.692;23.342;2023-02-15T13:59:56;33.10;;;22.20;;
52956;SDS011;38819;42.692;23.342;2023-02-15T14:03:00;36.92;;;22.63;;
52956;SDS011;38819;42.692;23.342;2023-02-15T14:06:14;33.50;;;21.77;;
52956;SDS011;38819;42.692;23.342;2023-02-15T14:11:35;33.90;;;21.85;;
52956;SDS011;38819;42.692;23.342;2023-02-15T14:14:11;33.92;;;22.60;;
52956;SDS011;38819;42.692;23.342;2023-02-15T14:16:41;34.30;;;21.73;;
52956;SDS011;38819;42.692;23.342;2023-02-15T14:19:19;33.90;;;22.52;;
52956;SDS011;38819;42.692;23.342;2023-02-15T14:27:21;36.90;;;22.35;;
52956;SDS011;38819;42.692;23.342;2023-02-15T14:29:54;33.35;;;21.33;;
52956;SDS011;38819;42.692;23.342;2023-02-15T14:34:59;29.83;;;21.23;;
52956;SDS011;38819;42.692;23.342;2023-02-15T14:43:33;34.33;;;24.05;;
52956;SDS011;38819;42.692;23.342;2023-02-15T14:49:27;36.78;;;23.42;;
52956;SDS011;38819;42.692;23.342;2023-02-15T14:56:42;35.20;;;22.90;;
52956;SDS011;38819;42.692;23.342;2023-02-15T15:01:55;40.92;;;23.52;;
52956;SDS011;38819;42.692;23.342;2023-02-15T15:04:25;34.20;;;22.27;;
52956;SDS011;38819;42.692;23.342;2023-02-15T15:07:17;35.50;;;22.17;;
52956;SDS011;38819;42.692;23.342;2023-02-15T15:09:46;28.95;;;20.67;;
52956;SDS011;38819;42.692;23.342;2023-02-15T15:14:52;32.13;;;21.52;;
52956;SDS011;38819;42.692;23.342;2023-02-15T15:23:32;34.35;;;21.42;;
52956;SDS011;38819;42.692;23.342;2023-02-15T15:25:41;37.53;;;22.35;;
52956;SDS011;38819;42.692;23.342;2023-02-15T15:28:07;34.67;;;22.83;;
52956;SDS011;38819;42.692;23.342;2023-02-15T15:33:23;34.80;;;22.25;;
52956;SDS011;38819;42.692;23.342;2023-02-15T15:42:12;36.47;;;23.75;;
52956;SDS011;38819;42.692;23.342;2023-02-15T15:45:08;39.67;;;23.17;;
52956;SDS011;38819;42.692;23.342;2023-02-15T15:50:51;33.70;;;23.45;;
52956;SDS011;38819;42.692;23.342;2023-02-15T15:53:22;36.65;;;22.88;;
52956;SDS011;38819;42.692;23.342;2023-02-15T15:55:51;33.00;;;22.90;;
52956;SDS011;38819;42.692;23.342;2023-02-15T15:58:19;36.72;;;22.77;;
52956;SDS011;38819;42.692;23.342;2023-02-15T16:03:24;36.78;;;24.40;;
52956;SDS011;38819;42.692;23.342;2023-02-15T16:05:51;36.60;;;23.52;;
52956;SDS011;38819;42.692;23.342;2023-02-15T16:08:26;31.40;;;22.00;;
52956;SDS011;38819;42.692;23.342;2023-02-15T16:10:57;38.60;;;22.95;;
52956;SDS011;38819;42.692;23.342;2023-02-15T16:13:23;36.38;;;24.02;;
52956;SDS011;38819;42.692;23.342;2023-02-15T16:15:50;37.60;;;24.53;;
52956;SDS011;38819;42.692;23.342;2023-02-15T16:18:25;42.17;;;24.13;;
52956;SDS011;38819;42.692;23.342;2023-02-15T16:20:57;40.80;;;23.92;;
52956;SDS011;38819;42.692;23.342;2023-02-15T16:29:28;38.70;;;23.50;;
52956;SDS011;38819;42.692;23.342;2023-02-15T16:31:57;37.60;;;24.30;;
52956;SDS011;38819;42.692;23.342;2023-02-15T16:34:30;36.47;;;24.05;;
52956;SDS011;38819;42.692;23.342;2023-02-15T16:37:12;43.72;;;25.27;;
52956;SDS011;38819;42.692;23.342;2023-02-15T16:39:42;38.88;;;24.00;;
52956;SDS011;38819;42.692;23.342;2023-02-15T16:42:09;39.50;;;23.92;;
52956;SDS011;38819;42.692;23.342;2023-02-15T16:44:38;37.28;;;23.85;;
52956;SDS011;38819;42.692;23.342;2023-02-15T16:47:05;35.40;;;23.40;;
52956;SDS011;38819;42.692;23.342;2023-02-15T16:49:57;38.45;;;25.98;;
52956;SDS011;38819;42.692;23.342;2023-02-15T16:52:26;39.55;;;24.52;;
52956;SDS011;38819;42.692;23.342;2023-02-15T16:54:56;38.53;;;25.58;;
52956;SDS011;38819;42.692;23.342;2023-02-15T16:57:28;39.33;;;24.00;;
52956;SDS011;38819;42.692;23.342;2023-02-15T17:00:00;46.95;;;25.73;;
52956;SDS011;38819;42.692;23.342;2023-02-15T17:02:30;40.72;;;25.17;;
52956;SDS011;38819;42.692;23.342;2023-02-15T17:07:31;41.67;;;23.92;;
52956;SDS011;38819;42.692;23.342;2023-02-15T17:09:58;37.63;;;23.80;;
52956;SDS011;38819;42.692;23.342;2023-02-15T17:12:43;37.13;;;23.40;;
52956;SDS011;38819;42.692;23.342;2023-02-15T17:18:22;38.10;;;24.40;;
52956;SDS011;38819;42.692;23.342;2023-02-15T17:20:48;37.22;;;24.52;;
52956;SDS011;38819;42.692;23.342;2023-02-15T17:25:51;42.38;;;26.08;;
52956;SDS011;38819;42.692;23.342;2023-02-15T17:28:23;38.47;;;24.48;;
52956;SDS011;38819;42.692;23.342;2023-02-15T17:30:52;43.47;;;25.63;;
52956;SDS011;38819;42.692;23.342;2023-02-15T17:33:21;39.70;;;26.05;;
52956;SDS011;38819;42.692;23.342;2023-02-15T17:36:16;40.08;;;25.55;;
52956;SDS011;38819;42.692;23.342;2023-02-15T17:41:43;47.63;;;26.05;;
52956;SDS011;38819;42.692;23.342;2023-02-15T17:44:09;38.40;;;24.17;;
52956;SDS011;38819;42.692;23.342;2023-02-15T17:46:40;40.35;;;25.55;;
52956;SDS011;38819;42.692;23.342;2023-02-15T17:49:10;41.63;;;24.75;;
52956;SDS011;38819;42.692;23.342;2023-02-15T17:51:44;39.80;;;24.98;;
52956;SDS011;38819;42.692;23.342;2023-02-15T17:54:09;40.33;;;24.52;;
52956;SDS011;38819;42.692;23.342;2023-02-15T17:56:53;37.05;;;23.23;;
52956;SDS011;38819;42.692;23.342;2023-02-15T17:59:19;38.10;;;23.15;;
52956;SDS011;38819;42.692;23.342;2023-02-15T18:01:45;43.63;;;24.70;;
52956;SDS011;38819;42.692;23.342;2023-02-15T18:04:31;37.92;;;23.00;;
52956;SDS011;38819;42.692;23.342;2023-02-15T18:07:18;37.50;;;23.48;;